Towner, North Dakota
Current Conditions -  °F | °C
As of 2:15 AM on Monday 26 Jan 2015 (Local Time) from KRUG Reporting Station
Clear Clear  
Wind Chill: 25°   Ceiling: Unl
Heat Index: 36°   Visibility: 10mi
Dew Point: 32°   Wind: 18mph
Humidity: 87%   Direction: 300°WNW
Pressure: 29.7"   Gusts: NA
Location:  48.35°N, 100.41°W
Report Text: KRUG 260815Z AUTO 30016KT 10SM CLR 02/00 A2970 RMK AO2
Loading
Personal Weather Stations






























Interactive Weather Map New forecast layout! Learn more

10-Day Weather Forecast

Advertisements
Track Severe Weather on mobile